Time;durP1;ratioP1;P1;durP2;ratioP2;P2;SDS_P1;SDS_P2;PMS_P1;PMS_P2;Temp;Humidity;BMP_temperature;BMP_pressure;BME280_temperature;BME280_humidity;BME280_pressure;Samples;Min_cycle;Max_cycle;Signal;HPM_P1;HPM_P2
2023/04/05 00:01:37;;;;;;;5.65;3.83;;;;;;;;;;4853562;29;20045;-93
2023/04/05 00:04:04;;;;;;;6.80;4.05;;;;;;;;;;4884246;29;20135;-93
2023/04/05 00:06:34;;;;;;;6.95;3.95;;;;;;;;;;4869136;29;20056;-94
2023/04/05 00:09:03;;;;;;;5.28;4.38;;;;;;;;;;4868973;29;20052;-93
2023/04/05 00:11:31;;;;;;;6.40;4.18;;;;;;;;;;4854791;29;20051;-95
2023/04/05 00:14:00;;;;;;;5.22;4.00;;;;;;;;;;4869952;29;20057;-95
2023/04/05 00:16:29;;;;;;;6.90;4.40;;;;;;;;;;4885861;29;20057;-94
2023/04/05 00:18:56;;;;;;;6.13;4.38;;;;;;;;;;4869109;29;20458;-92
2023/04/05 00:21:23;;;;;;;8.18;4.60;;;;;;;;;;4869312;29;20057;-95
2023/04/05 00:23:58;;;;;;;5.97;4.18;;;;;;;;;;4853449;29;20063;-92
2023/04/05 00:26:25;;;;;;;5.00;3.55;;;;;;;;;;4869149;29;20053;-93
2023/04/05 00:28:51;;;;;;;12.48;4.28;;;;;;;;;;4868881;29;20060;-94
2023/04/05 00:31:18;;;;;;;6.88;4.00;;;;;;;;;;4853157;29;20490;-90
2023/04/05 00:33:44;;;;;;;7.53;4.07;;;;;;;;;;4869607;29;20139;-92
2023/04/05 00:36:20;;;;;;;7.60;3.60;;;;;;;;;;4853665;29;20414;-94
2023/04/05 00:38:47;;;;;;;8.38;4.20;;;;;;;;;;4867073;29;20060;-92
2023/04/05 00:41:13;;;;;;;13.88;4.30;;;;;;;;;;4867255;29;20052;-93
2023/04/05 00:43:40;;;;;;;12.45;4.70;;;;;;;;;;4884643;29;20147;-91
2023/04/05 00:46:06;;;;;;;10.52;4.53;;;;;;;;;;4869025;29;20064;-93
2023/04/05 00:48:33;;;;;;;6.47;4.38;;;;;;;;;;4868582;29;20084;-92
2023/04/05 00:50:59;;;;;;;6.78;4.90;;;;;;;;;;4870340;29;20064;-92
2023/04/05 00:53:26;;;;;;;7.32;4.57;;;;;;;;;;4871156;29;20064;-92
2023/04/05 00:55:52;;;;;;;5.97;4.45;;;;;;;;;;4869774;29;20391;-92
2023/04/05 00:58:20;;;;;;;11.43;4.85;;;;;;;;;;4884113;29;20060;-92
2023/04/05 01:01:04;;;;;;;5.45;4.03;;;;;;;;;;4867246;29;20048;-91
2023/04/05 01:03:33;;;;;;;6.33;4.50;;;;;;;;;;4867787;29;20406;-90
2023/04/05 01:06:05;;;;;;;5.63;4.40;;;;;;;;;;4870544;29;20053;-91
2023/04/05 01:08:35;;;;;;;6.32;4.00;;;;;;;;;;4869503;29;20097;-91
2023/04/05 01:11:03;;;;;;;7.97;4.35;;;;;;;;;;4873176;29;20144;-90
2023/04/05 01:13:29;;;;;;;8.27;3.97;;;;;;;;;;4886454;29;20061;-90
2023/04/05 01:15:55;;;;;;;7.43;4.28;;;;;;;;;;4851777;29;20107;-90
2023/04/05 01:18:23;;;;;;;6.10;4.07;;;;;;;;;;4866773;29;20052;-90
2023/04/05 01:21:09;;;;;;;5.45;3.65;;;;;;;;;;4867147;29;20075;-90
2023/04/05 01:23:38;;;;;;;5.82;3.28;;;;;;;;;;4866478;29;20179;-90
2023/04/05 01:26:04;;;;;;;4.60;3.42;;;;;;;;;;4866698;29;20093;-90
2023/04/05 01:28:58;;;;;;;3.45;3.15;;;;;;;;;;4866506;29;20064;-90
2023/04/05 01:31:24;;;;;;;3.33;3.03;;;;;;;;;;4867134;29;20049;-91
2023/04/05 01:34:06;;;;;;;7.53;3.67;;;;;;;;;;4866727;29;20056;-91
2023/04/05 01:36:55;;;;;;;4.90;3.72;;;;;;;;;;4867994;29;20044;-91
2023/04/05 01:39:22;;;;;;;8.20;3.72;;;;;;;;;;4869544;29;20095;-90
2023/04/05 01:41:49;;;;;;;5.28;3.55;;;;;;;;;;4885818;29;20104;-91
2023/04/05 01:44:15;;;;;;;9.57;4.25;;;;;;;;;;4870047;29;20092;-90
2023/04/05 01:46:42;;;;;;;7.22;5.03;;;;;;;;;;4854706;29;20057;-90
2023/04/05 01:49:08;;;;;;;9.13;4.70;;;;;;;;;;4869585;29;20498;-90
2023/04/05 01:51:34;;;;;;;11.43;5.57;;;;;;;;;;4870206;29;20049;-91
2023/04/05 01:54:00;;;;;;;8.60;4.68;;;;;;;;;;4885445;29;20052;-90
2023/04/05 01:56:26;;;;;;;6.70;4.55;;;;;;;;;;4854415;29;20498;-90
2023/04/05 01:58:52;;;;;;;7.80;4.45;;;;;;;;;;4869232;29;20048;-90
2023/04/05 02:01:19;;;;;;;7.85;4.40;;;;;;;;;;4854691;29;20108;-91
2023/04/05 02:03:45;;;;;;;7.45;4.13;;;;;;;;;;4870617;29;20056;-91
2023/04/05 02:06:11;;;;;;;7.90;4.70;;;;;;;;;;4870422;29;20139;-91
2023/04/05 02:08:37;;;;;;;6.20;4.47;;;;;;;;;;4869781;29;20059;-92
2023/04/05 02:11:03;;;;;;;8.88;5.68;;;;;;;;;;4854391;29;20256;-90
2023/04/05 02:13:32;;;;;;;6.93;3.90;;;;;;;;;;4869786;29;20159;-91
2023/04/05 02:15:59;;;;;;;8.93;4.55;;;;;;;;;;4870053;29;20053;-90
2023/04/05 02:18:34;;;;;;;15.05;4.70;;;;;;;;;;4854856;29;20056;-91
2023/04/05 02:21:04;;;;;;;5.10;3.75;;;;;;;;;;4873243;29;20467;-92
2023/04/05 02:23:33;;;;;;;7.40;4.60;;;;;;;;;;4864779;29;20529;-92
2023/04/05 02:25:59;;;;;;;11.90;4.60;;;;;;;;;;4864987;29;20515;-92
2023/04/05 02:28:26;;;;;;;8.48;5.18;;;;;;;;;;4879958;29;20052;-93
2023/04/05 02:30:52;;;;;;;7.03;4.82;;;;;;;;;;4877291;29;20052;-92
2023/04/05 02:33:18;;;;;;;6.20;4.13;;;;;;;;;;4870504;29;20052;-91
2023/04/05 02:35:44;;;;;;;14.85;4.85;;;;;;;;;;4869428;29;20057;-91
2023/04/05 02:38:10;;;;;;;7.38;4.60;;;;;;;;;;4869170;29;20100;-90
2023/04/05 02:40:40;;;;;;;10.32;4.75;;;;;;;;;;4869308;29;20061;-90
2023/04/05 02:43:06;;;;;;;13.38;4.45;;;;;;;;;;4884638;29;20406;-91
2023/04/05 02:45:33;;;;;;;7.88;4.18;;;;;;;;;;4869577;29;20049;-91
2023/04/05 02:47:59;;;;;;;8.25;3.83;;;;;;;;;;4868659;29;20080;-91
2023/04/05 02:50:25;;;;;;;15.65;4.20;;;;;;;;;;4870188;29;20068;-90
2023/04/05 02:52:51;;;;;;;14.30;4.32;;;;;;;;;;4853272;29;20048;-90
2023/04/05 02:55:17;;;;;;;9.68;5.00;;;;;;;;;;4868604;29;20177;-90
2023/04/05 02:57:44;;;;;;;5.82;4.40;;;;;;;;;;4868548;29;20052;-90
2023/04/05 03:00:12;;;;;;;6.13;4.15;;;;;;;;;;4868193;29;20055;-90
2023/04/05 03:02:38;;;;;;;7.28;4.20;;;;;;;;;;4868359;29;20214;-90
2023/04/05 03:05:06;;;;;;;6.85;4.28;;;;;;;;;;4868544;29;20060;-90
2023/04/05 03:07:34;;;;;;;5.32;3.72;;;;;;;;;;4868252;29;20383;-91
2023/04/05 03:10:01;;;;;;;7.65;4.10;;;;;;;;;;4867905;29;20403;-91
2023/04/05 03:12:27;;;;;;;6.70;3.70;;;;;;;;;;4868074;29;20056;-90
2023/04/05 03:14:53;;;;;;;9.13;3.92;;;;;;;;;;4868102;29;20063;-90
2023/04/05 03:17:19;;;;;;;7.90;3.70;;;;;;;;;;4867551;29;20057;-90
2023/04/05 03:19:45;;;;;;;5.78;4.32;;;;;;;;;;4867876;29;20060;-90
2023/04/05 03:22:11;;;;;;;8.93;3.95;;;;;;;;;;4867516;29;20092;-90
2023/04/05 03:24:38;;;;;;;6.65;4.30;;;;;;;;;;4867667;29;20067;-90
2023/04/05 03:27:05;;;;;;;8.88;4.60;;;;;;;;;;4867862;29;20048;-90
2023/04/05 03:29:34;;;;;;;7.45;4.68;;;;;;;;;;4867658;29;20517;-91
2023/04/05 03:32:00;;;;;;;7.57;4.70;;;;;;;;;;4867643;29;20143;-91
2023/04/05 03:34:27;;;;;;;5.53;4.13;;;;;;;;;;4867621;29;20052;-91
2023/04/05 03:36:54;;;;;;;10.10;4.47;;;;;;;;;;4883607;29;20533;-91
2023/04/05 03:39:20;;;;;;;7.65;4.60;;;;;;;;;;4867587;29;20057;-91
2023/04/05 03:41:46;;;;;;;5.82;3.85;;;;;;;;;;4867251;29;20131;-90
2023/04/05 03:44:13;;;;;;;6.72;4.53;;;;;;;;;;4867363;29;20525;-91
2023/04/05 03:46:39;;;;;;;7.40;4.40;;;;;;;;;;4867725;29;20063;-90
2023/04/05 03:49:06;;;;;;;9.68;4.35;;;;;;;;;;4852058;29;20143;-90
2023/04/05 03:51:32;;;;;;;7.55;4.68;;;;;;;;;;4852461;29;20550;-90
2023/04/05 03:53:58;;;;;;;7.05;4.18;;;;;;;;;;4852327;29;20057;-91
2023/04/05 03:56:24;;;;;;;9.10;5.38;;;;;;;;;;4866895;29;20147;-91
2023/04/05 03:58:52;;;;;;;8.95;4.43;;;;;;;;;;4881999;29;20064;-91
2023/04/05 04:01:18;;;;;;;7.70;4.97;;;;;;;;;;4866840;29;20099;-91
2023/04/05 04:03:44;;;;;;;10.30;4.90;;;;;;;;;;4851584;29;20462;-91
2023/04/05 04:06:10;;;;;;;5.68;4.45;;;;;;;;;;4866775;29;20123;-91
2023/04/05 04:08:37;;;;;;;7.75;3.70;;;;;;;;;;4866623;29;20095;-91
2023/04/05 04:11:03;;;;;;;5.53;3.85;;;;;;;;;;4866821;29;20101;-91
2023/04/05 04:13:29;;;;;;;6.13;4.28;;;;;;;;;;4851804;29;20112;-91
2023/04/05 04:15:55;;;;;;;7.15;4.18;;;;;;;;;;4867022;29;20052;-91
2023/04/05 04:18:21;;;;;;;6.22;4.07;;;;;;;;;;4866499;29;20053;-92
2023/04/05 04:20:48;;;;;;;7.38;4.65;;;;;;;;;;4852620;29;20052;-90
2023/04/05 04:23:14;;;;;;;7.45;4.10;;;;;;;;;;4851958;29;20052;-91
2023/04/05 04:25:44;;;;;;;7.78;3.72;;;;;;;;;;4882890;29;20505;-91
2023/04/05 04:28:11;;;;;;;7.22;5.07;;;;;;;;;;4881696;29;20069;-91
2023/04/05 04:30:37;;;;;;;6.63;4.60;;;;;;;;;;4866295;29;20066;-91
2023/04/05 04:33:04;;;;;;;5.25;4.15;;;;;;;;;;4866395;29;20056;-90
2023/04/05 04:35:33;;;;;;;10.18;4.35;;;;;;;;;;4851911;29;20085;-90
2023/04/05 04:38:04;;;;;;;8.98;4.97;;;;;;;;;;4881045;29;20068;-90
2023/04/05 04:40:46;;;;;;;6.28;4.20;;;;;;;;;;4867158;29;20494;-93
2023/04/05 04:43:15;;;;;;;5.97;4.50;;;;;;;;;;4866922;29;20059;-93
2023/04/05 04:45:47;;;;;;;6.50;4.75;;;;;;;;;;4866318;29;20148;-93
2023/04/05 04:48:16;;;;;;;7.45;4.60;;;;;;;;;;4868184;29;20095;-94
2023/04/05 04:50:43;;;;;;;6.00;5.03;;;;;;;;;;4867593;29;20045;-93
2023/04/05 04:53:09;;;;;;;5.32;3.97;;;;;;;;;;4867772;29;20068;-93
2023/04/05 04:55:36;;;;;;;7.40;4.40;;;;;;;;;;4866903;29;20160;-94
2023/04/05 04:58:08;;;;;;;7.63;4.90;;;;;;;;;;4882420;29;20120;-92
2023/04/05 05:00:35;;;;;;;7.22;4.90;;;;;;;;;;4851866;29;20599;-94
2023/04/05 05:03:02;;;;;;;5.75;4.22;;;;;;;;;;4866235;29;20057;-93
2023/04/05 05:05:31;;;;;;;11.45;6.20;;;;;;;;;;4868145;29;20064;-93
2023/04/05 05:07:59;;;;;;;18.25;6.45;;;;;;;;;;4866773;29;20504;-93
2023/04/05 05:10:26;;;;;;;21.83;6.75;;;;;;;;;;4867501;29;20063;-92
2023/04/05 05:12:52;;;;;;;23.08;6.72;;;;;;;;;;4870522;29;20410;-92
2023/04/05 05:15:19;;;;;;;16.27;6.28;;;;;;;;;;4869762;29;20076;-90
2023/04/05 05:17:46;;;;;;;14.85;5.55;;;;;;;;;;4869411;29;20055;-91
2023/04/05 05:20:12;;;;;;;12.68;5.25;;;;;;;;;;4854174;29;20052;-90
2023/04/05 05:22:38;;;;;;;13.05;5.28;;;;;;;;;;4869478;29;20215;-91
2023/04/05 05:25:11;;;;;;;14.10;5.10;;;;;;;;;;4870014;29;20068;-91
2023/04/05 05:27:46;;;;;;;9.85;5.70;;;;;;;;;;4854288;29;20063;-90
2023/04/05 05:30:13;;;;;;;13.93;6.13;;;;;;;;;;4854773;29;20439;-90
2023/04/05 05:32:40;;;;;;;14.35;4.93;;;;;;;;;;4869102;29;20052;-91
2023/04/05 05:35:07;;;;;;;11.35;5.82;;;;;;;;;;4869630;29;20139;-91
2023/04/05 05:37:33;;;;;;;7.88;4.45;;;;;;;;;;4854563;29;20577;-91
2023/04/05 05:39:59;;;;;;;8.80;5.10;;;;;;;;;;4869217;29;20060;-91
2023/04/05 05:42:26;;;;;;;12.27;4.78;;;;;;;;;;4853699;29;20057;-89
2023/04/05 05:44:52;;;;;;;12.48;4.93;;;;;;;;;;4870522;29;20060;-92
2023/04/05 05:47:19;;;;;;;9.45;5.70;;;;;;;;;;4870380;29;20533;-92
2023/04/05 05:49:45;;;;;;;11.52;5.20;;;;;;;;;;4869923;29;20508;-91
2023/04/05 05:52:11;;;;;;;8.02;5.32;;;;;;;;;;4854288;29;20052;-91
2023/04/05 05:54:37;;;;;;;9.80;6.38;;;;;;;;;;4869863;29;20064;-91
2023/04/05 05:57:03;;;;;;;11.80;5.10;;;;;;;;;;4885422;29;20156;-91
2023/04/05 05:59:29;;;;;;;8.50;5.95;;;;;;;;;;4854900;29;20049;-90
2023/04/05 06:01:56;;;;;;;13.68;7.53;;;;;;;;;;4869878;29;20498;-92
2023/04/05 06:04:22;;;;;;;12.40;6.05;;;;;;;;;;4869963;29;20057;-93
2023/04/05 06:06:48;;;;;;;21.27;8.20;;;;;;;;;;4870043;29;20056;-90
2023/04/05 06:09:14;;;;;;;11.15;7.90;;;;;;;;;;4854982;29;20053;-92
2023/04/05 06:11:41;;;;;;;17.85;10.93;;;;;;;;;;4856489;29;20051;-91
2023/04/05 06:14:13;;;;;;;11.35;8.48;;;;;;;;;;4891704;29;20112;-91
2023/04/05 06:16:39;;;;;;;14.65;9.52;;;;;;;;;;4874020;29;20048;-93
2023/04/05 06:19:05;;;;;;;14.02;9.95;;;;;;;;;;4889309;29;20131;-90
2023/04/05 06:21:31;;;;;;;14.98;9.90;;;;;;;;;;4870558;29;20060;-91
2023/04/05 06:23:57;;;;;;;15.85;9.52;;;;;;;;;;4854919;29;20064;-90
2023/04/05 06:26:26;;;;;;;20.08;11.20;;;;;;;;;;4855744;29;20072;-90
2023/04/05 06:28:53;;;;;;;16.10;11.25;;;;;;;;;;4871245;29;20049;-92
2023/04/05 06:31:21;;;;;;;23.83;11.77;;;;;;;;;;4877774;23;20053;-95
2023/04/05 06:33:53;;;;;;;18.20;11.80;;;;;;;;;;4933324;23;20113;-93
2023/04/05 08:18:38;;;;;;;;;;;;;;;;;;;;;
2023/04/05 08:21:07;;;;;;;13.35;9.43;;;;;;;;;;4864163;29;20068;-91
2023/04/05 08:27:07;;;;;;;12.80;9.52;;;;;;;;;;4880188;29;20048;-89
2023/04/05 08:40:25;;;;;;;;;;;;;;;;;;;;;
2023/04/05 08:43:19;;;;;;;13.40;8.80;;;;;;;;;;4827093;29;20068;-88
2023/04/05 08:55:19;;;;;;;10.18;7.30;;;;;;;;;;4834981;29;20048;-90
2023/04/05 08:58:25;;;;;;;;;;;;;;;;;;;;;
2023/04/05 09:01:30;;;;;;;;;;;;;;;;;;;;;
2023/04/05 09:11:34;;;;;;;11.05;7.35;;;;;;;;;;4809972;29;20436;-91
2023/04/05 09:20:08;;;;;;;11.00;6.53;;;;;;;;;;4834128;29;20053;-90
2023/04/05 09:22:56;;;;;;;9.25;6.63;;;;;;;;;;4850831;29;20503;-88
2023/04/05 09:41:23;;;;;;;7.60;5.05;;;;;;;;;;4948932;23;20065;-93
2023/04/05 09:44:02;;;;;;;;;;;;;;;;;;;;;
2023/04/05 09:46:43;;;;;;;;;;;;;;;;;;;;;
2023/04/05 09:49:42;;;;;;;;;;;;;;;;;;;;;
2023/04/05 10:02:36;;;;;;;5.78;4.47;;;;;;;;;;4792940;29;20071;-89
2023/04/05 10:05:21;;;;;;;5.85;4.75;;;;;;;;;;4793885;29;20085;-90
2023/04/05 10:48:58;;;;;;;;;;;;;;;;;;;;;
2023/04/05 10:59:30;;;;;;;;;;;;;;;;;;;;;
2023/04/05 11:51:47;;;;;;;;;;;;;;;;;;;;;
2023/04/05 11:54:48;;;;;;;9.68;5.35;;;;;;;;;;4864163;29;20053;-89
2023/04/05 11:57:27;;;;;;;8.20;4.55;;;;;;;;;;4846087;29;20049;-90
2023/04/05 12:05:21;;;;;;;7.28;5.07;;;;;;;;;;4019980;27;20172;-90
2023/04/05 12:08:35;;;;;;;;;;;;;;;;;;;;;
2023/04/05 12:11:50;;;;;;;;;;;;;;;;;;;;;
2023/04/05 12:29:53;;;;;;;;;;;;;;;;;;;;;
2023/04/05 12:42:27;;;;;;;;;;;;;;;;;;;;;
2023/04/05 12:45:26;;;;;;;6.72;4.88;;;;;;;;;;4864246;29;20589;-89
2023/04/05 12:48:24;;;;;;;5.43;4.93;;;;;;;;;;4833743;29;20057;-91
2023/04/05 12:54:49;;;;;;;6.22;4.40;;;;;;;;;;4879824;29;20060;-88
2023/04/05 12:57:17;;;;;;;6.85;5.70;;;;;;;;;;4847208;29;20562;-88
2023/04/05 12:59:46;;;;;;;6.88;4.88;;;;;;;;;;4848350;29;20126;-88
2023/04/05 13:02:15;;;;;;;6.93;5.32;;;;;;;;;;4848605;29;20121;-89
2023/04/05 13:05:06;;;;;;;6.22;4.97;;;;;;;;;;4879891;29;20112;-88
2023/04/05 13:07:43;;;;;;;8.02;5.35;;;;;;;;;;4848586;29;20413;-89
2023/04/05 13:10:29;;;;;;;7.65;4.82;;;;;;;;;;4834285;29;20144;-90
2023/04/05 13:13:19;;;;;;;;;;;;;;;;;;;;;
2023/04/05 13:15:48;;;;;;;7.82;5.10;;;;;;;;;;4850876;29;20070;-89
2023/04/05 13:18:14;;;;;;;9.18;5.68;;;;;;;;;;4849074;29;20053;-90
2023/04/05 13:20:46;;;;;;;6.72;5.32;;;;;;;;;;4849270;29;20498;-89
2023/04/05 13:23:12;;;;;;;5.72;4.45;;;;;;;;;;4849220;29;20057;-93
2023/04/05 13:25:39;;;;;;;7.40;4.75;;;;;;;;;;4864098;29;20103;-90
2023/04/05 13:28:09;;;;;;;8.60;4.82;;;;;;;;;;4864440;29;20060;-87
2023/04/05 13:30:46;;;;;;;5.63;4.45;;;;;;;;;;4848142;29;20570;-91
2023/04/05 13:33:12;;;;;;;7.68;4.68;;;;;;;;;;4848952;29;20406;-90
2023/04/05 13:35:41;;;;;;;6.60;4.30;;;;;;;;;;4848607;29;20057;-89
2023/04/05 13:38:12;;;;;;;6.22;5.05;;;;;;;;;;4849312;29;20094;-90
2023/04/05 13:40:44;;;;;;;9.38;5.47;;;;;;;;;;4849477;29;20411;-91
2023/04/05 13:43:10;;;;;;;11.57;4.85;;;;;;;;;;4847760;29;20054;-92
2023/04/05 13:45:40;;;;;;;10.07;5.40;;;;;;;;;;4848288;29;20518;-90
2023/04/05 13:48:08;;;;;;;5.97;4.63;;;;;;;;;;4848596;29;20052;-90
2023/04/05 13:50:45;;;;;;;7.00;4.90;;;;;;;;;;4849009;29;20153;-89
2023/04/05 13:56:11;;;;;;;7.85;5.15;;;;;;;;;;4814976;29;20056;-91
2023/04/05 13:58:45;;;;;;;5.00;4.40;;;;;;;;;;4849143;29;20080;-91
2023/04/05 14:01:14;;;;;;;7.35;4.82;;;;;;;;;;4818677;29;20061;-91
2023/04/05 14:03:56;;;;;;;5.72;4.40;;;;;;;;;;4834086;29;20053;-90
2023/04/05 14:07:02;;;;;;;;;;;;;;;;;;;;;
2023/04/05 14:12:26;;;;;;;6.10;4.75;;;;;;;;;;4853773;29;20053;-89
2023/04/05 14:14:55;;;;;;;6.28;4.78;;;;;;;;;;4864061;29;20140;-88
2023/04/05 14:17:21;;;;;;;5.50;4.82;;;;;;;;;;4847287;29;20089;-89
2023/04/05 14:20:09;;;;;;;8.10;4.65;;;;;;;;;;4847218;29;20114;-89
2023/04/05 14:30:25;;;;;;;;;;;;;;;;;;;;;
2023/04/05 14:33:16;;;;;;;;;;;;;;;;;;;;;
2023/04/05 14:36:04;;;;;;;5.75;4.75;;;;;;;;;;4799381;29;20503;-92
2023/04/05 14:38:36;;;;;;;7.18;4.15;;;;;;;;;;4795380;29;20058;-90
2023/04/05 14:41:12;;;;;;;9.27;4.68;;;;;;;;;;4807800;29;20090;-88
2023/04/05 14:44:06;;;;;;;5.53;3.88;;;;;;;;;;4846640;29;20153;-89
2023/04/05 14:46:43;;;;;;;8.05;4.95;;;;;;;;;;4834728;29;20049;-91
2023/04/05 14:49:26;;;;;;;5.03;4.50;;;;;;;;;;4848947;29;20056;-91
2023/04/05 14:51:52;;;;;;;6.28;4.43;;;;;;;;;;4849208;29;20049;-89
2023/04/05 14:54:34;;;;;;;5.70;3.78;;;;;;;;;;4847474;29;20057;-89
2023/04/05 14:57:34;;;;;;;;;;;;;;;;;;;;;
2023/04/05 14:59:54;;;;;;;7.45;5.03;;;;;;;;;;4831477;29;20467;-90
2023/04/05 15:13:28;;;;;;;;;;;;;;;;;;;;;
2023/04/05 15:16:10;;;;;;;8.45;4.60;;;;;;;;;;4778651;29;20089;-88
2023/04/05 15:18:39;;;;;;;7.25;4.70;;;;;;;;;;4845945;29;20169;-87
2023/04/05 15:21:13;;;;;;;8.02;4.63;;;;;;;;;;4861732;29;20123;-89
2023/04/05 15:23:40;;;;;;;5.55;4.45;;;;;;;;;;4863048;29;20112;-89
2023/04/05 15:32:52;;;;;;;6.40;4.32;;;;;;;;;;4862011;29;20049;-89
2023/04/05 15:35:28;;;;;;;;;;;;;;;;;;;;;
2023/04/05 15:37:57;;;;;;;7.20;4.30;;;;;;;;;;4846400;29;20058;-89
2023/04/05 15:40:27;;;;;;;6.90;4.53;;;;;;;;;;4846014;29;20483;-88
2023/04/05 15:42:55;;;;;;;5.43;4.05;;;;;;;;;;4846276;29;20140;-88
2023/04/05 15:45:41;;;;;;;;;;;;;;;;;;;;;
2023/04/05 15:48:46;;;;;;;;;;;;;;;;;;;;;
2023/04/05 15:51:14;;;;;;;;;;;;;;;;;;;;;
2023/04/05 15:53:51;;;;;;;7.63;4.47;;;;;;;;;;4845439;29;20062;-89
2023/04/05 15:56:28;;;;;;;5.45;4.20;;;;;;;;;;4845772;29;20049;-88
2023/04/05 15:59:17;;;;;;;6.63;4.03;;;;;;;;;;4845717;29;20069;-89
2023/04/05 16:01:51;;;;;;;4.60;4.18;;;;;;;;;;4845945;29;20053;-89
2023/04/05 16:04:17;;;;;;;7.75;4.55;;;;;;;;;;4845983;29;20060;-88
2023/04/05 16:06:46;;;;;;;6.43;4.82;;;;;;;;;;4845910;29;20045;-90
2023/04/05 16:12:53;;;;;;;6.18;4.63;;;;;;;;;;4862091;29;20144;-93
2023/04/05 16:15:19;;;;;;;6.10;4.75;;;;;;;;;;4845958;29;20057;-93
2023/04/05 16:17:45;;;;;;;6.10;4.13;;;;;;;;;;4815641;29;20053;-92
2023/04/05 16:20:12;;;;;;;6.13;4.00;;;;;;;;;;4845350;29;20068;-94
2023/04/05 16:22:45;;;;;;;6.32;4.80;;;;;;;;;;4846408;29;20057;-92
2023/04/05 16:25:14;;;;;;;4.82;3.92;;;;;;;;;;4816262;29;20053;-94
2023/04/05 16:27:40;;;;;;;5.97;4.43;;;;;;;;;;4845556;29;20118;-94
2023/04/05 16:30:09;;;;;;;6.82;3.95;;;;;;;;;;4820642;29;20054;-93
2023/04/05 16:32:35;;;;;;;7.35;4.18;;;;;;;;;;4777174;29;20127;-93
2023/04/05 16:35:01;;;;;;;6.70;5.22;;;;;;;;;;4818600;29;20180;-92
2023/04/05 16:37:27;;;;;;;8.38;4.60;;;;;;;;;;4792575;29;20039;-91
2023/04/05 16:39:53;;;;;;;5.18;3.95;;;;;;;;;;4822879;29;20067;-91
2023/04/05 16:42:20;;;;;;;4.15;3.75;;;;;;;;;;4803130;29;20038;-90
2023/04/05 16:44:46;;;;;;;7.13;4.43;;;;;;;;;;4812179;29;20155;-92
2023/04/05 16:47:12;;;;;;;5.22;4.38;;;;;;;;;;4807785;29;20096;-93
2023/04/05 16:49:38;;;;;;;5.20;4.00;;;;;;;;;;4777128;29;20157;-91
2023/04/05 16:52:04;;;;;;;7.95;3.95;;;;;;;;;;4789788;29;20101;-91
2023/04/05 16:54:31;;;;;;;6.38;4.68;;;;;;;;;;4819618;29;20055;-92
2023/04/05 16:57:00;;;;;;;6.28;4.10;;;;;;;;;;4775160;29;20058;-91
2023/04/05 16:59:26;;;;;;;10.75;4.15;;;;;;;;;;4819298;29;20055;-93
2023/04/05 17:01:52;;;;;;;5.25;4.32;;;;;;;;;;4826328;29;20447;-93
2023/04/05 17:04:18;;;;;;;13.85;4.35;;;;;;;;;;4829987;29;20109;-93
2023/04/05 17:06:44;;;;;;;8.52;4.70;;;;;;;;;;4847182;29;20141;-91
2023/04/05 17:09:10;;;;;;;5.60;4.35;;;;;;;;;;4848579;29;20057;-89
2023/04/05 17:11:36;;;;;;;5.82;4.22;;;;;;;;;;4848278;29;20503;-88
2023/04/05 17:14:04;;;;;;;6.50;4.47;;;;;;;;;;4848365;29;20088;-89
2023/04/05 17:16:30;;;;;;;8.95;4.95;;;;;;;;;;4848770;29;20056;-89
2023/04/05 17:18:56;;;;;;;7.55;4.60;;;;;;;;;;4848674;29;20061;-89
2023/04/05 17:21:22;;;;;;;7.20;4.40;;;;;;;;;;4848130;29;20049;-90
2023/04/05 17:23:49;;;;;;;7.20;4.32;;;;;;;;;;4848223;29;20057;-90
2023/04/05 17:26:15;;;;;;;6.43;4.25;;;;;;;;;;4847540;29;20133;-89
2023/04/05 17:28:41;;;;;;;7.60;4.38;;;;;;;;;;4817983;29;20053;-92
2023/04/05 17:31:07;;;;;;;8.10;4.75;;;;;;;;;;4848531;29;20049;-89
2023/04/05 17:33:33;;;;;;;6.95;5.20;;;;;;;;;;4833332;29;20057;-90
2023/04/05 17:36:00;;;;;;;4.57;4.05;;;;;;;;;;4848122;29;20511;-90
2023/04/05 17:38:26;;;;;;;8.18;4.75;;;;;;;;;;4832466;29;20060;-88
2023/04/05 17:40:55;;;;;;;5.97;4.63;;;;;;;;;;4847957;29;20057;-89
2023/04/05 17:43:22;;;;;;;4.45;4.03;;;;;;;;;;4863778;29;20057;-91
2023/04/05 17:45:48;;;;;;;6.80;4.72;;;;;;;;;;4847641;29;20046;-89
2023/04/05 17:48:14;;;;;;;6.80;4.90;;;;;;;;;;4848097;29;20118;-87
2023/04/05 17:50:40;;;;;;;6.55;5.20;;;;;;;;;;4832175;29;20061;-88
2023/04/05 17:53:09;;;;;;;6.88;4.80;;;;;;;;;;4817675;29;20586;-89
2023/04/05 17:55:37;;;;;;;5.18;4.68;;;;;;;;;;4848017;29;20475;-89
2023/04/05 17:58:06;;;;;;;8.80;5.20;;;;;;;;;;4847524;29;20053;-89
2023/04/05 18:00:32;;;;;;;6.07;4.95;;;;;;;;;;4847691;29;20201;-90
2023/04/05 18:02:58;;;;;;;6.15;4.97;;;;;;;;;;4816933;29;20085;-89
2023/04/05 18:05:25;;;;;;;5.32;4.30;;;;;;;;;;4847091;29;20061;-89
2023/04/05 18:07:52;;;;;;;7.72;4.32;;;;;;;;;;4817197;29;20053;-89
2023/04/05 18:10:22;;;;;;;5.28;4.68;;;;;;;;;;4846825;29;20496;-89
2023/04/05 18:12:53;;;;;;;6.53;4.82;;;;;;;;;;4847294;29;20590;-89
2023/04/05 18:15:22;;;;;;;8.80;4.53;;;;;;;;;;4848144;29;20435;-89
2023/04/05 18:17:50;;;;;;;8.25;5.22;;;;;;;;;;4847039;29;20049;-90
2023/04/05 18:20:19;;;;;;;6.03;4.68;;;;;;;;;;4832743;29;20093;-89
2023/04/05 18:22:45;;;;;;;8.40;5.18;;;;;;;;;;4817947;29;20049;-90
2023/04/05 18:25:18;;;;;;;7.20;5.32;;;;;;;;;;4848695;29;20058;-90
2023/04/05 18:27:47;;;;;;;5.95;5.20;;;;;;;;;;4848414;29;20061;-90
2023/04/05 18:30:14;;;;;;;6.50;5.15;;;;;;;;;;4851180;29;20488;-92
2023/04/05 18:32:48;;;;;;;7.55;5.18;;;;;;;;;;4866793;29;20118;-92
2023/04/05 18:35:16;;;;;;;6.72;5.38;;;;;;;;;;4851171;29;20201;-93
2023/04/05 18:37:43;;;;;;;12.10;5.20;;;;;;;;;;4840299;29;20050;-92
2023/04/05 18:40:09;;;;;;;6.82;4.55;;;;;;;;;;4825557;29;20061;-93
2023/04/05 18:42:36;;;;;;;9.20;5.60;;;;;;;;;;4822527;29;20061;-92
2023/04/05 18:45:08;;;;;;;10.98;8.85;;;;;;;;;;4849435;29;20065;-95
2023/04/05 18:47:38;;;;;;;10.75;5.97;;;;;;;;;;4849528;29;20061;-92
2023/04/05 18:50:08;;;;;;;8.85;5.25;;;;;;;;;;4850108;29;20499;-93
2023/04/05 18:52:36;;;;;;;9.48;5.65;;;;;;;;;;4849893;29;20419;-92
2023/04/05 18:55:08;;;;;;;;;;;8.50;99.90;;;;;;4865231;29;20113;-92
2023/04/05 18:57:35;;;;;;;6.03;5.05;;;;;;;;;;4850281;29;19924;-92
2023/04/05 19:07:28;;;;;;;;;;;;;;;;;;;;;
2023/04/05 21:16:46;;;;;;;10.40;6.78;;;;;;;;;;934617;23;20312;-89
2023/04/05 21:19:13;;;;;;;9.95;6.72;;;;;;;;;;4826230;29;20137;-92
2023/04/05 21:21:39;;;;;;;10.93;6.05;;;;;;;;;;4826825;29;20057;-91
2023/04/05 21:24:05;;;;;;;8.85;6.25;;;;;;;;;;4797330;29;20065;-90
2023/04/05 21:26:31;;;;;;;11.80;7.65;;;;;;;;;;4798031;29;20450;-90
2023/04/05 21:28:57;;;;;;;14.10;7.95;;;;;;;;;;4793285;29;20126;-90
2023/04/05 21:31:23;;;;;;;10.30;7.68;;;;;;;;;;4807986;29;20408;-90
2023/04/05 21:33:49;;;;;;;14.57;7.43;;;;;;;;;;4808158;29;20089;-91
2023/04/05 21:36:16;;;;;;;9.18;6.82;;;;;;;;;;4807701;29;20058;-91
2023/04/05 21:38:42;;;;;;;13.50;8.85;;;;;;;;;;4781422;29;20058;-91
2023/04/05 21:41:08;;;;;;;13.43;7.43;;;;;;;;;;4790218;29;20058;-92
2023/04/05 21:43:34;;;;;;;7.65;6.07;;;;;;;;;;4788264;29;20058;-92
2023/04/05 21:46:00;;;;;;;14.07;7.68;;;;;;;;;;4814318;29;20123;-91
2023/04/05 21:48:26;;;;;;;10.95;7.43;;;;;;;;;;4782620;29;20058;-91
2023/04/05 21:50:53;;;;;;;11.18;7.97;;;;;;;;;;4808571;29;20058;-91
2023/04/05 21:53:19;;;;;;;8.95;7.68;;;;;;;;;;4810254;29;20054;-91
2023/04/05 21:55:45;;;;;;;11.23;7.40;;;;;;;;;;4811498;29;20056;-91
2023/04/05 21:58:12;;;;;;;12.68;7.32;;;;;;;;;;4811526;29;20054;-91
2023/04/05 22:00:38;;;;;;;17.10;7.63;;;;;;;;;;4780875;29;20058;-91
2023/04/05 22:03:04;;;;;;;8.80;6.57;;;;;;;;;;4811016;29;20092;-91
2023/04/05 22:05:30;;;;;;;11.50;6.80;;;;;;;;;;4811119;29;20061;-91
2023/04/05 22:07:56;;;;;;;11.02;7.93;;;;;;;;;;4811903;29;20061;-91
2023/04/05 22:10:23;;;;;;;11.05;7.45;;;;;;;;;;4811653;29;20465;-91
2023/04/05 22:12:50;;;;;;;12.95;6.43;;;;;;;;;;4811457;29;20058;-91
2023/04/05 22:15:16;;;;;;;8.43;6.57;;;;;;;;;;4811410;29;20086;-91
2023/04/05 22:17:43;;;;;;;11.88;7.95;;;;;;;;;;4811444;29;20428;-91
2023/04/05 22:20:09;;;;;;;14.00;7.18;;;;;;;;;;4812564;29;20431;-91
2023/04/05 22:22:35;;;;;;;9.45;6.97;;;;;;;;;;4812666;29;20561;-92
2023/04/05 22:25:05;;;;;;;10.82;6.90;;;;;;;;;;4813721;29;20061;-91
2023/04/05 22:27:34;;;;;;;8.10;6.63;;;;;;;;;;4813119;29;20046;-92
2023/04/05 22:30:00;;;;;;;8.40;6.68;;;;;;;;;;4798313;29;20516;-93
2023/04/05 22:32:26;;;;;;;11.48;6.40;;;;;;;;;;4798878;29;20149;-92
2023/04/05 22:34:52;;;;;;;11.23;7.15;;;;;;;;;;4798361;29;20062;-92
2023/04/05 22:37:18;;;;;;;10.23;6.38;;;;;;;;;;4802710;29;20058;-92
2023/04/05 22:39:44;;;;;;;7.82;5.53;;;;;;;;;;4821444;29;20129;-90
2023/04/05 22:42:10;;;;;;;8.88;5.90;;;;;;;;;;4806976;29;20137;-90
2023/04/05 22:44:38;;;;;;;7.57;5.72;;;;;;;;;;4821129;29;20061;-92
2023/04/05 22:47:04;;;;;;;7.47;5.82;;;;;;;;;;4817876;29;20066;-91
2023/04/05 22:49:33;;;;;;;11.95;6.60;;;;;;;;;;4813177;29;20097;-90
2023/04/05 22:52:00;;;;;;;8.15;6.15;;;;;;;;;;4812040;29;20046;-89
2023/04/05 22:54:26;;;;;;;10.48;5.82;;;;;;;;;;4796746;29;20059;-89
2023/04/05 22:56:52;;;;;;;11.82;6.25;;;;;;;;;;4811307;29;20054;-90
2023/04/05 22:59:18;;;;;;;8.18;5.65;;;;;;;;;;4796278;29;20059;-89
2023/04/05 23:01:45;;;;;;;9.00;6.07;;;;;;;;;;4797150;29;20412;-91
2023/04/05 23:04:11;;;;;;;7.93;5.70;;;;;;;;;;4811290;29;20051;-90
2023/04/05 23:06:37;;;;;;;9.60;5.97;;;;;;;;;;4811824;29;20077;-91
2023/04/05 23:09:03;;;;;;;6.28;5.43;;;;;;;;;;4797159;29;20261;-90